sensor_id;sensor_type;location;lat;lon;timestamp;pressure;altitude;pressure_sealevel;temperature;humidity
75298;BME280;63896;45.990;18.688;2023-02-28T00:00:13;101858.03;;;0.11;97.41
75298;BME280;63896;45.990;18.688;2023-02-28T00:03:17;101856.91;;;0.03;98.10
75298;BME280;63896;45.990;18.688;2023-02-28T00:06:20;101858.09;;;-0.02;98.64
75298;BME280;63896;45.990;18.688;2023-02-28T00:09:23;101864.25;;;-0.03;98.72
75298;BME280;63896;45.990;18.688;2023-02-28T00:12:26;101856.03;;;-0.09;99.08
75298;BME280;63896;45.990;18.688;2023-02-28T00:15:29;101861.94;;;-0.07;99.57
75298;BME280;63896;45.990;18.688;2023-02-28T00:18:32;101855.63;;;-0.16;99.52
75298;BME280;63896;45.990;18.688;2023-02-28T00:21:35;101866.06;;;-0.16;99.62
75298;BME280;63896;45.990;18.688;2023-02-28T00:24:38;101864.41;;;-0.17;99.75
75298;BME280;63896;45.990;18.688;2023-02-28T00:27:41;101862.63;;;-0.16;99.10
75298;BME280;63896;45.990;18.688;2023-02-28T00:30:45;101868.78;;;-0.17;99.04
75298;BME280;63896;45.990;18.688;2023-02-28T00:33:48;101867.53;;;-0.24;98.86
75298;BME280;63896;45.990;18.688;2023-02-28T00:36:51;101867.03;;;-0.29;98.97
75298;BME280;63896;45.990;18.688;2023-02-28T00:39:54;101874.47;;;-0.36;98.62
75298;BME280;63896;45.990;18.688;2023-02-28T00:42:57;101870.78;;;-0.33;98.82
75298;BME280;63896;45.990;18.688;2023-02-28T00:46:01;101874.00;;;-0.30;98.93
75298;BME280;63896;45.990;18.688;2023-02-28T00:49:05;101880.81;;;-0.27;98.98
75298;BME280;63896;45.990;18.688;2023-02-28T00:52:08;101881.53;;;-0.25;98.92
75298;BME280;63896;45.990;18.688;2023-02-28T00:55:10;101884.03;;;-0.24;99.17
75298;BME280;63896;45.990;18.688;2023-02-28T00:58:13;101876.94;;;-0.34;98.99
75298;BME280;63896;45.990;18.688;2023-02-28T01:01:16;101866.72;;;-0.25;98.92
75298;BME280;63896;45.990;18.688;2023-02-28T01:04:19;101857.34;;;-0.27;99.44
75298;BME280;63896;45.990;18.688;2023-02-28T01:07:23;101862.56;;;-0.27;99.45
75298;BME280;63896;45.990;18.688;2023-02-28T01:10:27;101875.38;;;-0.37;99.24
75298;BME280;63896;45.990;18.688;2023-02-28T01:13:33;101873.19;;;-0.30;99.75
75298;BME280;63896;45.990;18.688;2023-02-28T01:16:36;101879.84;;;-0.26;99.98
75298;BME280;63896;45.990;18.688;2023-02-28T01:19:39;101875.84;;;-0.19;99.34
75298;BME280;63896;45.990;18.688;2023-02-28T01:22:42;101868.38;;;-0.24;99.23
75298;BME280;63896;45.990;18.688;2023-02-28T01:25:45;101861.94;;;-0.07;99.32
75298;BME280;63896;45.990;18.688;2023-02-28T01:28:49;101869.69;;;-0.06;98.64
75298;BME280;63896;45.990;18.688;2023-02-28T01:31:53;101865.91;;;-0.02;98.06
75298;BME280;63896;45.990;18.688;2023-02-28T01:34:56;101866.06;;;-0.16;97.84
75298;BME280;63896;45.990;18.688;2023-02-28T01:37:59;101860.41;;;-0.10;97.54
75298;BME280;63896;45.990;18.688;2023-02-28T01:41:20;101850.81;;;-0.09;97.18
75298;BME280;63896;45.990;18.688;2023-02-28T01:48:07;101848.44;;;-0.12;97.00
75298;BME280;63896;45.990;18.688;2023-02-28T01:51:14;101849.25;;;-0.12;96.22
75298;BME280;63896;45.990;18.688;2023-02-28T01:54:23;101844.25;;;-0.15;96.39
75298;BME280;63896;45.990;18.688;2023-02-28T01:57:32;101848.84;;;-0.18;96.04
75298;BME280;63896;45.990;18.688;2023-02-28T02:00:40;101842.84;;;-0.31;96.69
75298;BME280;63896;45.990;18.688;2023-02-28T02:03:45;101847.22;;;-0.32;96.02
75298;BME280;63896;45.990;18.688;2023-02-28T02:06:49;101846.19;;;-0.42;96.08
75298;BME280;63896;45.990;18.688;2023-02-28T02:10:02;101849.25;;;-0.48;96.60
75298;BME280;63896;45.990;18.688;2023-02-28T02:13:12;101857.78;;;-0.46;96.48
75298;BME280;63896;45.990;18.688;2023-02-28T02:26:33;101853.00;;;-0.52;97.69
75298;BME280;63896;45.990;18.688;2023-02-28T02:33:18;101845.81;;;-0.61;96.73
75298;BME280;63896;45.990;18.688;2023-02-28T02:36:35;101847.56;;;-0.62;96.73
75298;BME280;63896;45.990;18.688;2023-02-28T02:46:04;101853.22;;;-0.55;96.88
75298;BME280;63896;45.990;18.688;2023-02-28T02:49:11;101847.47;;;-0.47;96.48
75298;BME280;63896;45.990;18.688;2023-02-28T02:52:18;101851.31;;;-0.53;96.09
75298;BME280;63896;45.990;18.688;2023-02-28T02:55:24;101847.56;;;-0.49;95.88
75298;BME280;63896;45.990;18.688;2023-02-28T02:58:31;101845.94;;;-0.63;95.16
75298;BME280;63896;45.990;18.688;2023-02-28T03:01:37;101844.03;;;-0.61;95.17
75298;BME280;63896;45.990;18.688;2023-02-28T03:04:57;101850.00;;;-0.59;94.99
75298;BME280;63896;45.990;18.688;2023-02-28T03:08:04;101865.31;;;-0.54;94.99
75298;BME280;63896;45.990;18.688;2023-02-28T03:11:12;101859.03;;;-0.52;95.19
75298;BME280;63896;45.990;18.688;2023-02-28T03:18:01;101854.88;;;-0.54;95.25
75298;BME280;63896;45.990;18.688;2023-02-28T03:24:43;101854.16;;;-0.56;95.19
75298;BME280;63896;45.990;18.688;2023-02-28T03:28:21;101857.78;;;-0.46;95.16
75298;BME280;63896;45.990;18.688;2023-02-28T03:31:40;101858.66;;;-0.58;95.36
75298;BME280;63896;45.990;18.688;2023-02-28T03:38:18;101861.66;;;-0.52;94.86
75298;BME280;63896;45.990;18.688;2023-02-28T03:41:27;101865.19;;;-0.53;94.56
75298;BME280;63896;45.990;18.688;2023-02-28T03:44:38;101866.75;;;-0.50;94.82
75298;BME280;63896;45.990;18.688;2023-02-28T03:47:51;101861.44;;;-0.49;94.32
75298;BME280;63896;45.990;18.688;2023-02-28T03:50:57;101855.50;;;-0.51;94.42
75298;BME280;63896;45.990;18.688;2023-02-28T03:54:06;101872.78;;;-0.50;93.95
75298;BME280;63896;45.990;18.688;2023-02-28T04:00:47;101866.97;;;-0.53;94.17
75298;BME280;63896;45.990;18.688;2023-02-28T04:03:52;101866.56;;;-0.47;93.73
75298;BME280;63896;45.990;18.688;2023-02-28T04:07:08;101867.41;;;-0.46;93.38
75298;BME280;63896;45.990;18.688;2023-02-28T04:10:12;101863.53;;;-0.54;92.73
75298;BME280;63896;45.990;18.688;2023-02-28T04:13:17;101869.34;;;-0.50;93.43
75298;BME280;63896;45.990;18.688;2023-02-28T04:16:20;101859.56;;;-0.46;93.31
75298;BME280;63896;45.990;18.688;2023-02-28T04:19:36;101862.66;;;-0.41;93.33
75298;BME280;63896;45.990;18.688;2023-02-28T04:22:39;101865.09;;;-0.51;92.36
75298;BME280;63896;45.990;18.688;2023-02-28T04:25:42;101863.41;;;-0.52;93.12
75298;BME280;63896;45.990;18.688;2023-02-28T04:28:45;101871.94;;;-0.37;93.36
75298;BME280;63896;45.990;18.688;2023-02-28T04:31:48;101874.31;;;-0.34;93.33
75298;BME280;63896;45.990;18.688;2023-02-28T04:34:51;101871.53;;;-0.31;93.36
75298;BME280;63896;45.990;18.688;2023-02-28T04:37:53;101867.53;;;-0.24;92.78
75298;BME280;63896;45.990;18.688;2023-02-28T04:40:57;101869.41;;;-0.26;92.80
75298;BME280;63896;45.990;18.688;2023-02-28T04:44:01;101873.53;;;-0.35;92.41
75298;BME280;63896;45.990;18.688;2023-02-28T04:47:04;101875.69;;;-0.29;93.17
75298;BME280;63896;45.990;18.688;2023-02-28T04:50:07;101872.44;;;-0.20;92.95
75298;BME280;63896;45.990;18.688;2023-02-28T04:53:12;101864.91;;;-0.12;91.49
75298;BME280;63896;45.990;18.688;2023-02-28T04:56:16;101861.19;;;-0.20;92.57
75298;BME280;63896;45.990;18.688;2023-02-28T04:59:20;101865.78;;;-0.24;92.35
75298;BME280;63896;45.990;18.688;2023-02-28T05:02:23;101867.22;;;-0.20;92.80
75298;BME280;63896;45.990;18.688;2023-02-28T05:05:26;101864.63;;;-0.20;91.99
75298;BME280;63896;45.990;18.688;2023-02-28T05:08:29;101866.63;;;-0.23;91.75
75298;BME280;63896;45.990;18.688;2023-02-28T05:11:34;101868.56;;;-0.27;92.91
75298;BME280;63896;45.990;18.688;2023-02-28T05:14:37;101863.19;;;-0.36;91.92
75298;BME280;63896;45.990;18.688;2023-02-28T05:17:41;101876.22;;;-0.36;91.98
75298;BME280;63896;45.990;18.688;2023-02-28T05:20:44;101876.63;;;-0.30;92.07
75298;BME280;63896;45.990;18.688;2023-02-28T05:23:47;101877.28;;;-0.39;91.83
75298;BME280;63896;45.990;18.688;2023-02-28T05:26:51;101877.38;;;-0.40;91.84
75298;BME280;63896;45.990;18.688;2023-02-28T05:29:55;101889.34;;;-0.25;92.21
75298;BME280;63896;45.990;18.688;2023-02-28T05:32:59;101876.22;;;-0.36;92.10
75298;BME280;63896;45.990;18.688;2023-02-28T05:36:02;101889.97;;;-0.34;91.92
75298;BME280;63896;45.990;18.688;2023-02-28T05:39:06;101888.19;;;-0.34;92.08
75298;BME280;63896;45.990;18.688;2023-02-28T05:42:15;101901.44;;;-0.24;91.76
75298;BME280;63896;45.990;18.688;2023-02-28T05:45:18;101909.81;;;-0.32;91.06
75298;BME280;63896;45.990;18.688;2023-02-28T05:48:21;101911.44;;;-0.18;91.01
75298;BME280;63896;45.990;18.688;2023-02-28T05:51:24;101914.88;;;-0.18;91.46
75298;BME280;63896;45.990;18.688;2023-02-28T05:54:27;101912.28;;;-0.18;91.08
75298;BME280;63896;45.990;18.688;2023-02-28T05:57:30;101919.56;;;-0.10;91.78
75298;BME280;63896;45.990;18.688;2023-02-28T06:00:32;101921.84;;;-0.06;90.99
75298;BME280;63896;45.990;18.688;2023-02-28T06:03:35;101916.47;;;0.09;90.21
75298;BME280;63896;45.990;18.688;2023-02-28T06:06:38;101918.13;;;0.22;89.65
75298;BME280;63896;45.990;18.688;2023-02-28T06:09:41;101920.00;;;0.20;89.19
75298;BME280;63896;45.990;18.688;2023-02-28T06:12:44;101923.75;;;0.16;90.00
75298;BME280;63896;45.990;18.688;2023-02-28T06:15:47;101932.28;;;0.31;89.82
75298;BME280;63896;45.990;18.688;2023-02-28T06:18:50;101936.44;;;0.33;89.72
75298;BME280;63896;45.990;18.688;2023-02-28T06:21:54;101941.06;;;0.30;90.30
75298;BME280;63896;45.990;18.688;2023-02-28T06:24:57;101934.72;;;0.45;88.91
75298;BME280;63896;45.990;18.688;2023-02-28T06:28:00;101937.31;;;0.58;88.44
75298;BME280;63896;45.990;18.688;2023-02-28T06:31:11;101940.66;;;0.71;87.65
75298;BME280;63896;45.990;18.688;2023-02-28T06:34:15;101941.44;;;0.84;86.67
75298;BME280;63896;45.990;18.688;2023-02-28T06:37:18;101945.47;;;0.53;86.65
75298;BME280;63896;45.990;18.688;2023-02-28T06:40:21;101947.50;;;0.37;87.85
75298;BME280;63896;45.990;18.688;2023-02-28T06:43:28;101946.28;;;0.54;88.89
75298;BME280;63896;45.990;18.688;2023-02-28T06:46:32;101950.00;;;0.62;88.27
75298;BME280;63896;45.990;18.688;2023-02-28T06:49:36;101939.25;;;0.78;87.54
75298;BME280;63896;45.990;18.688;2023-02-28T06:52:39;101944.66;;;0.64;86.62
75298;BME280;63896;45.990;18.688;2023-02-28T06:55:42;101946.13;;;0.68;86.63
75298;BME280;63896;45.990;18.688;2023-02-28T06:58:49;101945.72;;;0.85;87.11
75298;BME280;63896;45.990;18.688;2023-02-28T07:01:53;101949.28;;;0.84;86.66
75298;BME280;63896;45.990;18.688;2023-02-28T07:04:57;101949.28;;;0.84;87.01
75298;BME280;63896;45.990;18.688;2023-02-28T07:08:04;101947.88;;;0.91;86.65
75298;BME280;63896;45.990;18.688;2023-02-28T07:11:08;101943.78;;;0.76;87.01
75298;BME280;63896;45.990;18.688;2023-02-28T07:14:12;101948.38;;;0.96;86.32
75298;BME280;63896;45.990;18.688;2023-02-28T07:17:21;101947.56;;;1.07;85.97
75298;BME280;63896;45.990;18.688;2023-02-28T07:20:26;101946.97;;;1.03;85.83
75298;BME280;63896;45.990;18.688;2023-02-28T07:23:30;101941.38;;;0.97;84.87
75298;BME280;63896;45.990;18.688;2023-02-28T07:26:33;101941.28;;;1.09;84.85
75298;BME280;63896;45.990;18.688;2023-02-28T07:29:40;101950.81;;;1.21;84.37
75298;BME280;63896;45.990;18.688;2023-02-28T07:32:43;101953.09;;;1.37;82.38
75298;BME280;63896;45.990;18.688;2023-02-28T07:35:47;101942.06;;;1.56;81.60
75298;BME280;63896;45.990;18.688;2023-02-28T07:38:51;101958.34;;;1.59;81.73
75298;BME280;63896;45.990;18.688;2023-02-28T07:41:54;101947.53;;;1.75;81.78
75298;BME280;63896;45.990;18.688;2023-02-28T07:45:08;101951.13;;;1.85;80.81
75298;BME280;63896;45.990;18.688;2023-02-28T07:48:14;101951.22;;;2.06;81.16
75298;BME280;63896;45.990;18.688;2023-02-28T07:51:17;101950.97;;;2.20;79.30
75298;BME280;63896;45.990;18.688;2023-02-28T07:54:23;101959.09;;;1.95;81.14
75298;BME280;63896;45.990;18.688;2023-02-28T07:57:26;101961.81;;;2.04;81.02
75298;BME280;63896;45.990;18.688;2023-02-28T08:00:29;101958.84;;;1.98;80.52
75298;BME280;63896;45.990;18.688;2023-02-28T08:03:33;101959.31;;;2.03;80.38
75298;BME280;63896;45.990;18.688;2023-02-28T08:06:38;101958.47;;;2.02;81.00
75298;BME280;63896;45.990;18.688;2023-02-28T08:09:43;101959.44;;;1.90;81.65
75298;BME280;63896;45.990;18.688;2023-02-28T08:12:46;101957.53;;;2.14;81.31
75298;BME280;63896;45.990;18.688;2023-02-28T08:15:53;101951.78;;;2.20;80.49
75298;BME280;63896;45.990;18.688;2023-02-28T08:18:57;101953.13;;;2.15;80.32
75298;BME280;63896;45.990;18.688;2023-02-28T08:22:03;101955.22;;;2.32;79.33
75298;BME280;63896;45.990;18.688;2023-02-28T08:25:06;101953.50;;;2.53;78.89
75298;BME280;63896;45.990;18.688;2023-02-28T08:28:10;101949.75;;;2.78;77.91
75298;BME280;63896;45.990;18.688;2023-02-28T08:31:14;101961.97;;;2.88;76.67
75298;BME280;63896;45.990;18.688;2023-02-28T08:34:18;101964.66;;;2.98;77.24
75298;BME280;63896;45.990;18.688;2023-02-28T08:37:22;101956.41;;;3.03;76.98
75298;BME280;63896;45.990;18.688;2023-02-28T08:40:25;101960.47;;;3.27;76.80
75298;BME280;63896;45.990;18.688;2023-02-28T08:43:29;101961.34;;;2.96;74.49
75298;BME280;63896;45.990;18.688;2023-02-28T08:46:43;101955.59;;;2.38;76.88
75298;BME280;63896;45.990;18.688;2023-02-28T08:49:46;101955.78;;;2.78;76.57
75298;BME280;63896;45.990;18.688;2023-02-28T08:52:49;101959.19;;;2.90;77.49
75298;BME280;63896;45.990;18.688;2023-02-28T08:55:59;101955.50;;;3.13;75.60
75298;BME280;63896;45.990;18.688;2023-02-28T08:59:03;101951.78;;;2.95;77.65
75298;BME280;63896;45.990;18.688;2023-02-28T09:02:09;101954.69;;;2.60;77.62
75298;BME280;63896;45.990;18.688;2023-02-28T09:05:15;101951.47;;;2.88;78.06
75298;BME280;63896;45.990;18.688;2023-02-28T09:08:18;101944.88;;;2.94;76.69
75298;BME280;63896;45.990;18.688;2023-02-28T09:11:21;101954.53;;;2.73;78.48
75298;BME280;63896;45.990;18.688;2023-02-28T09:14:24;101961.28;;;3.07;76.07
75298;BME280;63896;45.990;18.688;2023-02-28T09:17:28;101963.25;;;2.08;78.46
75298;BME280;63896;45.990;18.688;2023-02-28T09:20:33;101958.03;;;2.83;79.39
75298;BME280;63896;45.990;18.688;2023-02-28T09:23:36;101954.50;;;3.05;77.46
75298;BME280;63896;45.990;18.688;2023-02-28T09:26:40;101962.81;;;3.10;77.06
75298;BME280;63896;45.990;18.688;2023-02-28T09:29:44;101956.34;;;2.93;76.23
75298;BME280;63896;45.990;18.688;2023-02-28T09:32:47;101953.41;;;3.07;76.66
75298;BME280;63896;45.990;18.688;2023-02-28T09:36:00;101946.69;;;3.14;76.92
75298;BME280;63896;45.990;18.688;2023-02-28T09:39:03;101955.47;;;3.04;78.39
75298;BME280;63896;45.990;18.688;2023-02-28T09:42:17;101956.66;;;3.00;79.20
75298;BME280;63896;45.990;18.688;2023-02-28T09:45:32;101958.13;;;3.13;78.11
75298;BME280;63896;45.990;18.688;2023-02-28T09:48:39;101956.72;;;3.09;77.54
75298;BME280;63896;45.990;18.688;2023-02-28T09:52:05;101959.19;;;3.01;79.52
75298;BME280;63896;45.990;18.688;2023-02-28T09:58:46;101965.06;;;2.82;78.13
75298;BME280;63896;45.990;18.688;2023-02-28T10:05:24;101963.31;;;3.04;78.27
75298;BME280;63896;45.990;18.688;2023-02-28T10:08:34;101962.06;;;2.55;76.61
75298;BME280;63896;45.990;18.688;2023-02-28T10:11:39;101968.50;;;2.08;79.45
75298;BME280;63896;45.990;18.688;2023-02-28T10:14:46;101962.78;;;2.57;80.17
75298;BME280;63896;45.990;18.688;2023-02-28T10:17:54;101961.63;;;2.82;80.14
75298;BME280;63896;45.990;18.688;2023-02-28T10:21:26;101969.16;;;2.75;79.75
75298;BME280;63896;45.990;18.688;2023-02-28T10:24:57;101967.72;;;2.71;78.14
75298;BME280;63896;45.990;18.688;2023-02-28T10:28:09;101974.03;;;2.80;80.19
75298;BME280;63896;45.990;18.688;2023-02-28T10:31:20;101970.16;;;2.95;77.75
75298;BME280;63896;45.990;18.688;2023-02-28T10:34:25;101960.25;;;3.19;75.91
75298;BME280;63896;45.990;18.688;2023-02-28T10:37:28;101966.31;;;3.41;77.37
75298;BME280;63896;45.990;18.688;2023-02-28T10:40:34;101959.66;;;3.57;77.57
75298;BME280;63896;45.990;18.688;2023-02-28T10:43:39;101964.38;;;3.63;76.66
75298;BME280;63896;45.990;18.688;2023-02-28T10:46:42;101958.94;;;2.72;77.26
75298;BME280;63896;45.990;18.688;2023-02-28T10:49:50;101956.09;;;3.17;78.96
75298;BME280;63896;45.990;18.688;2023-02-28T10:52:55;101947.66;;;3.55;77.79
75298;BME280;63896;45.990;18.688;2023-02-28T11:02:36;101935.81;;;3.40;78.01
75298;BME280;63896;45.990;18.688;2023-02-28T11:05:46;101931.91;;;3.34;75.78
75298;BME280;63896;45.990;18.688;2023-02-28T11:08:52;101933.78;;;3.73;77.08
75298;BME280;63896;45.990;18.688;2023-02-28T11:11:56;101932.69;;;4.16;75.92
75298;BME280;63896;45.990;18.688;2023-02-28T11:15:02;101920.97;;;4.49;74.53
75298;BME280;63896;45.990;18.688;2023-02-28T11:21:22;101917.81;;;4.74;73.16
75298;BME280;63896;45.990;18.688;2023-02-28T11:24:33;101912.41;;;4.47;73.24
75298;BME280;63896;45.990;18.688;2023-02-28T11:27:47;101912.13;;;4.59;73.02
75298;BME280;63896;45.990;18.688;2023-02-28T11:34:26;101906.56;;;3.74;74.25
75298;BME280;63896;45.990;18.688;2023-02-28T11:37:31;101894.91;;;3.98;75.80
75298;BME280;63896;45.990;18.688;2023-02-28T11:58:21;101890.44;;;3.89;76.83
75298;BME280;63896;45.990;18.688;2023-02-28T12:01:34;101875.94;;;3.84;76.30
75298;BME280;63896;45.990;18.688;2023-02-28T12:11:40;101871.91;;;3.90;76.08
75298;BME280;63896;45.990;18.688;2023-02-28T12:21:26;101865.91;;;4.18;73.68
75298;BME280;63896;45.990;18.688;2023-02-28T12:24:53;101873.13;;;4.55;71.80
75298;BME280;63896;45.990;18.688;2023-02-28T12:27:57;101866.47;;;4.70;73.46
75298;BME280;63896;45.990;18.688;2023-02-28T12:31:26;101856.59;;;4.91;71.97
75298;BME280;63896;45.990;18.688;2023-02-28T12:38:34;101865.34;;;4.82;69.74
75298;BME280;63896;45.990;18.688;2023-02-28T12:41:54;101869.09;;;4.70;72.46
75298;BME280;63896;45.990;18.688;2023-02-28T12:45:11;101868.28;;;4.69;72.08
75298;BME280;63896;45.990;18.688;2023-02-28T12:48:41;101869.38;;;4.67;71.04
75298;BME280;63896;45.990;18.688;2023-02-28T12:51:45;101869.38;;;4.67;70.93
75298;BME280;63896;45.990;18.688;2023-02-28T12:54:52;101862.88;;;4.71;71.09
75298;BME280;63896;45.990;18.688;2023-02-28T13:11:39;101871.66;;;3.93;73.97
75298;BME280;63896;45.990;18.688;2023-02-28T13:14:43;101866.41;;;3.93;73.20
75298;BME280;63896;45.990;18.688;2023-02-28T13:17:52;101852.22;;;4.05;73.19
75298;BME280;63896;45.990;18.688;2023-02-28T13:20:55;101857.03;;;4.00;73.50
75298;BME280;63896;45.990;18.688;2023-02-28T13:24:03;101847.75;;;4.06;72.34
75298;BME280;63896;45.990;18.688;2023-02-28T13:40:29;101852.41;;;3.83;74.55
75298;BME280;63896;45.990;18.688;2023-02-28T13:47:22;101853.31;;;3.53;75.08
75298;BME280;63896;45.990;18.688;2023-02-28T13:50:32;101850.41;;;3.56;75.21
75298;BME280;63896;45.990;18.688;2023-02-28T13:53:56;101841.59;;;3.67;75.18
75298;BME280;63896;45.990;18.688;2023-02-28T14:07:02;101835.00;;;3.72;76.25
75298;BME280;63896;45.990;18.688;2023-02-28T14:10:07;101838.97;;;3.67;75.97
75298;BME280;63896;45.990;18.688;2023-02-28T14:16:44;101825.44;;;3.62;75.79
75298;BME280;63896;45.990;18.688;2023-02-28T14:19:47;101838.28;;;3.65;75.53
75298;BME280;63896;45.990;18.688;2023-02-28T14:32:54;101828.88;;;3.22;76.12
75298;BME280;63896;45.990;18.688;2023-02-28T14:36:24;101835.06;;;3.52;76.49
75298;BME280;63896;45.990;18.688;2023-02-28T14:39:30;101836.72;;;3.53;76.14
75298;BME280;63896;45.990;18.688;2023-02-28T14:42:37;101836.38;;;3.36;75.85
75298;BME280;63896;45.990;18.688;2023-02-28T14:45:50;101829.41;;;3.56;76.26
75298;BME280;63896;45.990;18.688;2023-02-28T14:48:54;101825.84;;;3.57;75.61
75298;BME280;63896;45.990;18.688;2023-02-28T14:55:15;101828.19;;;3.20;76.24
75298;BME280;63896;45.990;18.688;2023-02-28T14:58:29;101830.91;;;3.40;76.71
75298;BME280;63896;45.990;18.688;2023-02-28T15:01:32;101830.72;;;3.31;76.13
75298;BME280;63896;45.990;18.688;2023-02-28T15:04:36;101830.66;;;3.22;76.80
75298;BME280;63896;45.990;18.688;2023-02-28T15:07:39;101832.78;;;3.28;77.40
75298;BME280;63896;45.990;18.688;2023-02-28T15:10:45;101825.06;;;3.36;76.86
75298;BME280;63896;45.990;18.688;2023-02-28T15:13:50;101822.59;;;3.34;76.56
75298;BME280;63896;45.990;18.688;2023-02-28T15:17:01;101819.81;;;3.36;76.74
75298;BME280;63896;45.990;18.688;2023-02-28T15:20:05;101819.75;;;3.47;76.50
75298;BME280;63896;45.990;18.688;2023-02-28T15:23:10;101815.88;;;3.51;75.83
75298;BME280;63896;45.990;18.688;2023-02-28T15:26:16;101819.00;;;3.35;77.13
75298;BME280;63896;45.990;18.688;2023-02-28T15:29:23;101816.22;;;3.37;77.83
75298;BME280;63896;45.990;18.688;2023-02-28T15:32:37;101820.41;;;3.40;77.42
75298;BME280;63896;45.990;18.688;2023-02-28T15:35:42;101819.81;;;3.36;77.12
75298;BME280;63896;45.990;18.688;2023-02-28T15:38:50;101823.44;;;3.45;77.15
75298;BME280;63896;45.990;18.688;2023-02-28T15:42:18;101832.13;;;3.35;78.00
75298;BME280;63896;45.990;18.688;2023-02-28T15:45:36;101827.94;;;3.33;76.77
75298;BME280;63896;45.990;18.688;2023-02-28T15:48:54;101826.59;;;3.39;76.46
75298;BME280;63896;45.990;18.688;2023-02-28T15:51:59;101827.53;;;3.28;77.20
75298;BME280;63896;45.990;18.688;2023-02-28T15:55:19;101831.13;;;3.27;77.29
75298;BME280;63896;45.990;18.688;2023-02-28T15:58:24;101821.75;;;3.04;77.32
75298;BME280;63896;45.990;18.688;2023-02-28T16:01:29;101830.06;;;2.88;77.27
75298;BME280;63896;45.990;18.688;2023-02-28T16:04:33;101831.63;;;2.70;78.56
75298;BME280;63896;45.990;18.688;2023-02-28T16:07:37;101837.25;;;2.65;79.18
75298;BME280;63896;45.990;18.688;2023-02-28T16:10:41;101834.88;;;2.62;79.58
75298;BME280;63896;45.990;18.688;2023-02-28T16:13:44;101833.66;;;2.66;80.04
75298;BME280;63896;45.990;18.688;2023-02-28T16:16:52;101835.66;;;2.74;80.47
75298;BME280;63896;45.990;18.688;2023-02-28T16:19:56;101836.72;;;2.71;80.64
75298;BME280;63896;45.990;18.688;2023-02-28T16:22:58;101834.09;;;2.71;80.58
75298;BME280;63896;45.990;18.688;2023-02-28T16:26:06;101838.75;;;2.68;80.24
75298;BME280;63896;45.990;18.688;2023-02-28T16:29:14;101834.88;;;2.62;80.51
75298;BME280;63896;45.990;18.688;2023-02-28T16:32:18;101838.13;;;2.55;80.67
75298;BME280;63896;45.990;18.688;2023-02-28T16:35:21;101830.97;;;2.57;80.90
75298;BME280;63896;45.990;18.688;2023-02-28T16:38:24;101839.47;;;2.49;81.20
75298;BME280;63896;45.990;18.688;2023-02-28T16:41:28;101831.50;;;2.39;81.47
75298;BME280;63896;45.990;18.688;2023-02-28T16:44:33;101835.94;;;2.39;82.37
75298;BME280;63896;45.990;18.688;2023-02-28T16:47:37;101832.50;;;2.38;82.06
75298;BME280;63896;45.990;18.688;2023-02-28T16:50:40;101839.88;;;2.33;82.31
75298;BME280;63896;45.990;18.688;2023-02-28T16:53:44;101840.84;;;2.32;82.91
75298;BME280;63896;45.990;18.688;2023-02-28T16:56:48;101842.63;;;2.32;82.21
75298;BME280;63896;45.990;18.688;2023-02-28T16:59:51;101842.19;;;2.27;82.91
75298;BME280;63896;45.990;18.688;2023-02-28T17:02:55;101843.72;;;2.29;83.44
75298;BME280;63896;45.990;18.688;2023-02-28T17:05:58;101850.16;;;2.25;83.20
75298;BME280;63896;45.990;18.688;2023-02-28T17:09:01;101850.41;;;2.22;84.10
75298;BME280;63896;45.990;18.688;2023-02-28T17:12:04;101852.56;;;2.17;84.05
75298;BME280;63896;45.990;18.688;2023-02-28T17:15:08;101851.72;;;2.17;83.78
75298;BME280;63896;45.990;18.688;2023-02-28T17:18:17;101858.63;;;2.18;83.50
75298;BME280;63896;45.990;18.688;2023-02-28T17:21:23;101862.91;;;2.19;84.08
75298;BME280;63896;45.990;18.688;2023-02-28T17:24:26;101866.81;;;2.24;84.01
75298;BME280;63896;45.990;18.688;2023-02-28T17:27:32;101864.69;;;2.18;84.02
75298;BME280;63896;45.990;18.688;2023-02-28T17:30:35;101866.84;;;2.13;83.94
75298;BME280;63896;45.990;18.688;2023-02-28T17:33:38;101866.72;;;2.15;84.17
75298;BME280;63896;45.990;18.688;2023-02-28T17:36:41;101876.94;;;2.18;84.29
75298;BME280;63896;45.990;18.688;2023-02-28T17:39:44;101882.44;;;2.15;83.94
75298;BME280;63896;45.990;18.688;2023-02-28T17:42:48;101879.81;;;2.15;84.44
75298;BME280;63896;45.990;18.688;2023-02-28T17:45:51;101874.84;;;2.12;83.96
75298;BME280;63896;45.990;18.688;2023-02-28T17:48:55;101880.28;;;2.09;84.73
75298;BME280;63896;45.990;18.688;2023-02-28T17:51:58;101876.03;;;2.08;84.70
75298;BME280;63896;45.990;18.688;2023-02-28T17:55:03;101878.66;;;2.08;85.40
75298;BME280;63896;45.990;18.688;2023-02-28T17:58:09;101878.66;;;2.08;85.37
75298;BME280;63896;45.990;18.688;2023-02-28T18:01:14;101878.06;;;2.04;86.18
75298;BME280;63896;45.990;18.688;2023-02-28T18:04:20;101876.66;;;2.00;86.37
75298;BME280;63896;45.990;18.688;2023-02-28T18:07:24;101867.22;;;1.98;86.57
75298;BME280;63896;45.990;18.688;2023-02-28T18:10:28;101863.31;;;2.03;86.94
75298;BME280;63896;45.990;18.688;2023-02-28T18:13:36;101866.63;;;2.05;86.68
75298;BME280;63896;45.990;18.688;2023-02-28T18:16:39;101861.78;;;2.01;86.91
75298;BME280;63896;45.990;18.688;2023-02-28T18:19:43;101860.22;;;1.98;87.59
75298;BME280;63896;45.990;18.688;2023-02-28T18:22:46;101853.31;;;2.08;87.68
75298;BME280;63896;45.990;18.688;2023-02-28T18:25:49;101860.56;;;1.93;87.55
75298;BME280;63896;45.990;18.688;2023-02-28T18:28:52;101860.97;;;1.89;88.37
75298;BME280;63896;45.990;18.688;2023-02-28T18:31:56;101865.47;;;1.87;88.88
75298;BME280;63896;45.990;18.688;2023-02-28T18:34:59;101870.63;;;1.77;89.68
75298;BME280;63896;45.990;18.688;2023-02-28T18:38:08;101863.56;;;1.78;89.58
75298;BME280;63896;45.990;18.688;2023-02-28T18:41:12;101868.81;;;1.78;90.53